Time;durP1;ratioP1;P1;durP2;ratioP2;P2;SDS_P1;SDS_P2;PMS_P1;PMS_P2;Temp;Humidity;BMP_temperature;BMP_pressure;BME280_temperature;BME280_humidity;BME280_pressure;Samples;Min_cycle;Max_cycle;Signal;HPM_P1;HPM_P2
2019/11/14 00:00:51;;;;;;;11.05;8.049999;;;;;;;-0.37;100;94178.42;;;;
2019/11/14 00:01:54;;;;;;;11.45;8.049999;;;;;;;-0.53;100;94168.56;;;;
2019/11/14 00:02:55;;;;;;;11.45;8.049999;;;;;;;-0.53;100;94168.56;;;;
2019/11/14 00:03:56;;;;;;;11.45;8.049999;;;;;;;-0.53;100;94168.56;;;;
2019/11/14 00:04:57;;;;;;;11.45;8.049999;;;;;;;-0.53;100;94168.56;;;;
2019/11/14 00:05:58;;;;;;;11.45;8.049999;;;;;;;-0.53;100;94168.56;;;;
2019/11/14 00:06:59;;;;;;;11.45;8.049999;;;;;;;-0.53;100;94168.56;;;;
2019/11/14 00:08:00;;;;;;;11.45;8.049999;;;;;;;-0.53;100;94168.56;;;;
2019/11/14 00:09:01;;;;;;;11.45;8.049999;;;;;;;-0.53;100;94168.56;;;;
2019/11/14 00:10:03;;;;;;;11.45;8.049999;;;;;;;-0.53;100;94168.56;;;;
2019/11/14 00:11:05;;;;;;;11.45;8.049999;;;;;;;-0.53;100;94168.56;;;;
2019/11/14 00:12:06;;;;;;;11.15;8.35;;;;;;;-0.7;100;94154.8;;;;
2019/11/14 00:13:07;;;;;;;11.15;8.35;;;;;;;-0.7;100;94154.8;;;;
2019/11/14 00:14:08;;;;;;;11.15;8.35;;;;;;;-0.7;100;94154.8;;;;
2019/11/14 00:15:09;;;;;;;11.15;8.35;;;;;;;-0.7;100;94154.8;;;;
2019/11/14 00:16:10;;;;;;;11.15;8.35;;;;;;;-0.7;100;94154.8;;;;
2019/11/14 00:17:11;;;;;;;11.15;8.35;;;;;;;-0.7;100;94154.8;;;;
2019/11/14 00:18:12;;;;;;;11.15;8.35;;;;;;;-0.7;100;94154.8;;;;
2019/11/14 00:19:14;;;;;;;11.15;8.35;;;;;;;-0.7;100;94154.8;;;;
2019/11/14 00:20:15;;;;;;;11.15;8.35;;;;;;;-0.7;100;94154.8;;;;
2019/11/14 00:21:16;;;;;;;11.15;8.35;;;;;;;-0.7;100;94154.8;;;;
2019/11/14 00:22:17;;;;;;;11.15;8.35;;;;;;;-0.7;100;94154.8;;;;
2019/11/14 00:23:18;;;;;;;14.2;10;;;;;;;-0.8;100;94146.91;;;;
2019/11/14 00:24:19;;;;;;;14.2;10;;;;;;;-0.8;100;94146.91;;;;
2019/11/14 00:25:20;;;;;;;14.2;10;;;;;;;-0.8;100;94146.91;;;;
2019/11/14 00:26:21;;;;;;;14.2;10;;;;;;;-0.8;100;94146.91;;;;
2019/11/14 00:27:22;;;;;;;14.2;10;;;;;;;-0.8;100;94146.91;;;;
2019/11/14 00:28:24;;;;;;;14.2;10;;;;;;;-0.8;100;94146.91;;;;
2019/11/14 00:29:25;;;;;;;14.2;10;;;;;;;-0.8;100;94146.91;;;;
2019/11/14 00:30:26;;;;;;;14.2;10;;;;;;;-0.8;100;94146.91;;;;
2019/11/14 00:31:27;;;;;;;14.2;10;;;;;;;-0.8;100;94146.91;;;;
2019/11/14 00:32:28;;;;;;;14.2;10;;;;;;;-0.8;100;94146.91;;;;
2019/11/14 00:34:03;;;;;;;12.25;8.85;;;;;;;-0.9;100;94117.3;;;;
2019/11/14 00:35:27;;;;;;;12.25;8.85;;;;;;;-0.9;100;94117.3;;;;
2019/11/14 00:36:28;;;;;;;12.25;8.85;;;;;;;-0.9;100;94117.3;;;;
2019/11/14 00:37:30;;;;;;;12.25;8.85;;;;;;;-0.9;100;94117.3;;;;
2019/11/14 00:38:31;;;;;;;12.25;8.85;;;;;;;-0.9;100;94117.3;;;;
2019/11/14 00:39:32;;;;;;;12.25;8.85;;;;;;;-0.9;100;94117.3;;;;
2019/11/14 00:40:33;;;;;;;12.25;8.85;;;;;;;-0.9;100;94117.3;;;;
2019/11/14 00:41:34;;;;;;;12.25;8.85;;;;;;;-0.9;100;94117.3;;;;
2019/11/14 00:42:36;;;;;;;12.25;8.85;;;;;;;-0.9;100;94117.3;;;;
2019/11/14 00:43:37;;;;;;;12.25;8.85;;;;;;;-0.9;100;94117.3;;;;
2019/11/14 00:44:38;;;;;;;12.4;9.15;;;;;;;-1;100;94116.82;;;;
2019/11/14 00:45:39;;;;;;;12.4;9.15;;;;;;;-1;100;94116.82;;;;
2019/11/14 00:46:40;;;;;;;12.4;9.15;;;;;;;-1;100;94116.82;;;;
2019/11/14 00:47:41;;;;;;;12.4;9.15;;;;;;;-1;100;94116.82;;;;
2019/11/14 00:48:42;;;;;;;12.4;9.15;;;;;;;-1;100;94116.82;;;;
2019/11/14 00:49:43;;;;;;;12.4;9.15;;;;;;;-1;100;94116.82;;;;
2019/11/14 00:50:45;;;;;;;12.4;9.15;;;;;;;-1;100;94116.82;;;;
2019/11/14 00:51:46;;;;;;;12.4;9.15;;;;;;;-1;100;94116.82;;;;
2019/11/14 00:52:47;;;;;;;12.4;9.15;;;;;;;-1;100;94116.82;;;;
2019/11/14 00:53:48;;;;;;;12.4;9.15;;;;;;;-1;100;94116.82;;;;
2019/11/14 00:54:49;;;;;;;11.45;8.699999;;;;;;;-1.15;100;94113.86;;;;
2019/11/14 00:55:50;;;;;;;11.45;8.699999;;;;;;;-1.15;100;94113.86;;;;
2019/11/14 00:56:51;;;;;;;11.45;8.699999;;;;;;;-1.15;100;94113.86;;;;
2019/11/14 00:57:52;;;;;;;11.45;8.699999;;;;;;;-1.15;100;94113.86;;;;
2019/11/14 00:58:54;;;;;;;11.45;8.699999;;;;;;;-1.15;100;94113.86;;;;
2019/11/14 00:59:55;;;;;;;11.45;8.699999;;;;;;;-1.15;100;94113.86;;;;
2019/11/14 01:00:56;;;;;;;11.45;8.699999;;;;;;;-1.15;100;94113.86;;;;
2019/11/14 01:01:57;;;;;;;11.45;8.699999;;;;;;;-1.15;100;94113.86;;;;
2019/11/14 01:02:58;;;;;;;11.45;8.699999;;;;;;;-1.15;100;94113.86;;;;
2019/11/14 01:03:59;;;;;;;11.45;8.699999;;;;;;;-1.15;100;94113.86;;;;
2019/11/14 01:05:01;;;;;;;11.45;8.699999;;;;;;;-1.15;100;94113.86;;;;
2019/11/14 01:06:02;;;;;;;14.75;9.950001;;;;;;;-1.19;100;94105.49;;;;
2019/11/14 01:07:03;;;;;;;14.75;9.950001;;;;;;;-1.19;100;94105.49;;;;
2019/11/14 01:08:05;;;;;;;14.75;9.950001;;;;;;;-1.19;100;94105.49;;;;
2019/11/14 01:09:06;;;;;;;14.75;9.950001;;;;;;;-1.19;100;94105.49;;;;
2019/11/14 01:10:07;;;;;;;14.75;9.950001;;;;;;;-1.19;100;94105.49;;;;
2019/11/14 01:11:08;;;;;;;14.75;9.950001;;;;;;;-1.19;100;94105.49;;;;
2019/11/14 01:12:10;;;;;;;14.75;9.950001;;;;;;;-1.19;100;94105.49;;;;
2019/11/14 01:13:11;;;;;;;14.75;9.950001;;;;;;;-1.19;100;94105.49;;;;
2019/11/14 01:14:12;;;;;;;14.75;9.950001;;;;;;;-1.19;100;94105.49;;;;
2019/11/14 01:15:13;;;;;;;14.75;9.950001;;;;;;;-1.19;100;94105.49;;;;
2019/11/14 01:16:14;;;;;;;14.75;10.1;;;;;;;-1.26;100;94091.51;;;;
2019/11/14 01:17:16;;;;;;;14.75;10.1;;;;;;;-1.26;100;94091.51;;;;
2019/11/14 01:18:17;;;;;;;14.75;10.1;;;;;;;-1.26;100;94091.51;;;;
2019/11/14 01:19:18;;;;;;;14.75;10.1;;;;;;;-1.26;100;94091.51;;;;
2019/11/14 01:20:19;;;;;;;14.75;10.1;;;;;;;-1.26;100;94091.51;;;;
2019/11/14 01:23:51;;;;;;;14.75;10.1;;;;;;;-1.26;100;94091.51;;;;
2019/11/14 01:24:52;;;;;;;14.75;10.1;;;;;;;-1.26;100;94091.51;;;;
2019/11/14 01:25:53;;;;;;;14.75;10.1;;;;;;;-1.26;100;94091.51;;;;
2019/11/14 01:26:54;;;;;;;14.3;9.950001;;;;;;;-1.32;100;94090.45;;;;
2019/11/14 01:27:56;;;;;;;14.3;9.950001;;;;;;;-1.32;100;94090.45;;;;
2019/11/14 01:28:57;;;;;;;14.3;9.950001;;;;;;;-1.32;100;94090.45;;;;
2019/11/14 01:29:58;;;;;;;14.3;9.950001;;;;;;;-1.32;100;94090.45;;;;
2019/11/14 01:31:12;;;;;;;14.3;9.950001;;;;;;;-1.32;100;94090.45;;;;
2019/11/14 01:32:49;;;;;;;14.3;9.950001;;;;;;;-1.32;100;94090.45;;;;
2019/11/14 01:33:56;;;;;;;14.3;9.950001;;;;;;;-1.32;100;94090.45;;;;
2019/11/14 01:35:08;;;;;;;14.3;9.950001;;;;;;;-1.32;100;94090.45;;;;
2019/11/14 01:36:14;;;;;;;14.3;9.950001;;;;;;;-1.32;100;94090.45;;;;
2019/11/14 01:37:19;;;;;;;13.3;9.349998;;;;;;;-1.28;100;94071.03;;;;
2019/11/14 01:38:21;;;;;;;13.3;9.349998;;;;;;;-1.28;100;94071.03;;;;
2019/11/14 01:39:22;;;;;;;13.3;9.349998;;;;;;;-1.28;100;94071.03;;;;
2019/11/14 01:41:19;;;;;;;13.3;9.349998;;;;;;;-1.28;100;94071.03;;;;
2019/11/14 01:42:20;;;;;;;13.3;9.349998;;;;;;;-1.28;100;94071.03;;;;
2019/11/14 01:43:21;;;;;;;13.3;9.349998;;;;;;;-1.28;100;94071.03;;;;
2019/11/14 01:44:23;;;;;;;13.3;9.349998;;;;;;;-1.28;100;94071.03;;;;
2019/11/14 01:45:24;;;;;;;13.3;9.349998;;;;;;;-1.28;100;94071.03;;;;
2019/11/14 01:46:25;;;;;;;13.3;9.349998;;;;;;;-1.28;100;94071.03;;;;
2019/11/14 01:47:26;;;;;;;13.3;9.349998;;;;;;;-1.28;100;94071.03;;;;
2019/11/14 01:48:27;;;;;;;10.55;7.5;;;;;;;-1.16;100;94061.93;;;;
2019/11/14 01:49:28;;;;;;;10.55;7.5;;;;;;;-1.16;100;94061.93;;;;
2019/11/14 01:50:29;;;;;;;10.55;7.5;;;;;;;-1.16;100;94061.93;;;;
2019/11/14 01:51:31;;;;;;;10.55;7.5;;;;;;;-1.16;100;94061.93;;;;
2019/11/14 01:52:32;;;;;;;10.55;7.5;;;;;;;-1.16;100;94061.93;;;;
2019/11/14 01:53:33;;;;;;;10.55;7.5;;;;;;;-1.16;100;94061.93;;;;
2019/11/14 01:54:34;;;;;;;10.55;7.5;;;;;;;-1.16;100;94061.93;;;;
2019/11/14 01:55:36;;;;;;;10.55;7.5;;;;;;;-1.16;100;94061.93;;;;
2019/11/14 01:56:37;;;;;;;10.55;7.5;;;;;;;-1.16;100;94061.93;;;;
2019/11/14 01:57:38;;;;;;;10.55;7.5;;;;;;;-1.16;100;94061.93;;;;
2019/11/14 01:58:39;;;;;;;9.400002;6.95;;;;;;;-1.23;100;94057.11;;;;
2019/11/14 01:59:40;;;;;;;9.400002;6.95;;;;;;;-1.23;100;94057.11;;;;
2019/11/14 02:00:41;;;;;;;9.400002;6.95;;;;;;;-1.23;100;94057.11;;;;
2019/11/14 02:01:42;;;;;;;9.400002;6.95;;;;;;;-1.23;100;94057.11;;;;
2019/11/14 02:02:43;;;;;;;9.400002;6.95;;;;;;;-1.23;100;94057.11;;;;
2019/11/14 02:03:45;;;;;;;9.400002;6.95;;;;;;;-1.23;100;94057.11;;;;
2019/11/14 02:04:46;;;;;;;9.400002;6.95;;;;;;;-1.23;100;94057.11;;;;
2019/11/14 02:05:47;;;;;;;9.400002;6.95;;;;;;;-1.23;100;94057.11;;;;
2019/11/14 02:06:48;;;;;;;9.400002;6.95;;;;;;;-1.23;100;94057.11;;;;
2019/11/14 02:07:49;;;;;;;9.400002;6.95;;;;;;;-1.23;100;94057.11;;;;
2019/11/14 02:08:50;;;;;;;7.6;6.200001;;;;;;;-1.32;100;94046.77;;;;
2019/11/14 02:09:52;;;;;;;7.6;6.200001;;;;;;;-1.32;100;94046.77;;;;
2019/11/14 02:10:53;;;;;;;7.6;6.200001;;;;;;;-1.32;100;94046.77;;;;
2019/11/14 02:11:54;;;;;;;7.6;6.200001;;;;;;;-1.32;100;94046.77;;;;
2019/11/14 02:12:55;;;;;;;7.6;6.200001;;;;;;;-1.32;100;94046.77;;;;
2019/11/14 02:13:57;;;;;;;7.6;6.200001;;;;;;;-1.32;100;94046.77;;;;
2019/11/14 02:14:58;;;;;;;7.6;6.200001;;;;;;;-1.32;100;94046.77;;;;
2019/11/14 02:15:59;;;;;;;7.6;6.200001;;;;;;;-1.32;100;94046.77;;;;
2019/11/14 02:17:00;;;;;;;7.6;6.200001;;;;;;;-1.32;100;94046.77;;;;
2019/11/14 02:18:02;;;;;;;7.6;6.200001;;;;;;;-1.32;100;94046.77;;;;
2019/11/14 02:19:03;;;;;;;7.6;6.200001;;;;;;;-1.32;100;94046.77;;;;
2019/11/14 02:20:04;;;;;;;7.700001;5.8;;;;;;;-1.4;100;94039.87;;;;
2019/11/14 02:21:05;;;;;;;7.700001;5.8;;;;;;;-1.4;100;94039.87;;;;
2019/11/14 02:22:06;;;;;;;7.700001;5.8;;;;;;;-1.4;100;94039.87;;;;
2019/11/14 02:23:08;;;;;;;7.700001;5.8;;;;;;;-1.4;100;94039.87;;;;
2019/11/14 02:24:09;;;;;;;7.700001;5.8;;;;;;;-1.4;100;94039.87;;;;
2019/11/14 02:25:10;;;;;;;7.700001;5.8;;;;;;;-1.4;100;94039.87;;;;
2019/11/14 02:26:11;;;;;;;7.700001;5.8;;;;;;;-1.4;100;94039.87;;;;
2019/11/14 02:27:12;;;;;;;7.700001;5.8;;;;;;;-1.4;100;94039.87;;;;
2019/11/14 02:28:14;;;;;;;7.700001;5.8;;;;;;;-1.4;100;94039.87;;;;
2019/11/14 02:29:15;;;;;;;7.700001;5.8;;;;;;;-1.4;100;94039.87;;;;
2019/11/14 02:30:16;;;;;;;9.449999;6.400001;;;;;;;-1.56;100;94031.75;;;;
2019/11/14 02:31:17;;;;;;;9.449999;6.400001;;;;;;;-1.56;100;94031.75;;;;
2019/11/14 02:32:18;;;;;;;9.449999;6.400001;;;;;;;-1.56;100;94031.75;;;;
2019/11/14 02:33:19;;;;;;;9.449999;6.400001;;;;;;;-1.56;100;94031.75;;;;
2019/11/14 02:34:21;;;;;;;9.449999;6.400001;;;;;;;-1.56;100;94031.75;;;;
2019/11/14 02:35:22;;;;;;;9.449999;6.400001;;;;;;;-1.56;100;94031.75;;;;
2019/11/14 02:36:42;;;;;;;9.449999;6.400001;;;;;;;-1.56;100;94031.75;;;;
2019/11/14 02:37:44;;;;;;;9.449999;6.400001;;;;;;;-1.56;100;94031.75;;;;
2019/11/14 02:38:45;;;;;;;9.449999;6.400001;;;;;;;-1.56;100;94031.75;;;;
2019/11/14 02:39:49;;;;;;;9.449999;6.400001;;;;;;;-1.56;100;94031.75;;;;
2019/11/14 02:40:55;;;;;;;7.35;5.15;;;;;;;-1.66;100;93999.95;;;;
2019/11/14 02:42:01;;;;;;;7.35;5.15;;;;;;;-1.66;100;93999.95;;;;
2019/11/14 02:43:11;;;;;;;7.35;5.15;;;;;;;-1.66;100;93999.95;;;;
2019/11/14 02:44:46;;;;;;;7.35;5.15;;;;;;;-1.66;100;93999.95;;;;
2019/11/14 02:45:54;;;;;;;7.35;5.15;;;;;;;-1.66;100;93999.95;;;;
2019/11/14 02:46:57;;;;;;;7.35;5.15;;;;;;;-1.66;100;93999.95;;;;
2019/11/14 02:47:59;;;;;;;7.35;5.15;;;;;;;-1.66;100;93999.95;;;;
2019/11/14 02:49:00;;;;;;;7.35;5.15;;;;;;;-1.66;100;93999.95;;;;
2019/11/14 02:50:01;;;;;;;7.35;5.15;;;;;;;-1.66;100;93999.95;;;;
2019/11/14 02:51:03;;;;;;;7.35;5.15;;;;;;;-1.66;100;93999.95;;;;
2019/11/14 02:52:04;;;;;;;8.25;5.750001;;;;;;;-1.69;100;93998.16;;;;
2019/11/14 02:53:05;;;;;;;8.25;5.750001;;;;;;;-1.69;100;93998.16;;;;
2019/11/14 02:54:06;;;;;;;8.25;5.750001;;;;;;;-1.69;100;93998.16;;;;
2019/11/14 02:55:08;;;;;;;8.25;5.750001;;;;;;;-1.69;100;93998.16;;;;
2019/11/14 02:56:09;;;;;;;8.25;5.750001;;;;;;;-1.69;100;93998.16;;;;
2019/11/14 02:57:11;;;;;;;8.25;5.750001;;;;;;;-1.69;100;93998.16;;;;
2019/11/14 02:58:12;;;;;;;8.25;5.750001;;;;;;;-1.69;100;93998.16;;;;
2019/11/14 02:59:13;;;;;;;8.25;5.750001;;;;;;;-1.69;100;93998.16;;;;
2019/11/14 03:00:14;;;;;;;8.25;5.750001;;;;;;;-1.69;100;93998.16;;;;
2019/11/14 03:01:16;;;;;;;8.25;5.750001;;;;;;;-1.69;100;93998.16;;;;
2019/11/14 03:02:17;;;;;;;6.200001;4.799999;;;;;;;-1.66;100;94001.76;;;;
2019/11/14 03:03:19;;;;;;;6.200001;4.799999;;;;;;;-1.66;100;94001.76;;;;
2019/11/14 03:04:20;;;;;;;6.200001;4.799999;;;;;;;-1.66;100;94001.76;;;;
2019/11/14 03:05:21;;;;;;;6.200001;4.799999;;;;;;;-1.66;100;94001.76;;;;
2019/11/14 03:07:03;;;;;;;6.200001;4.799999;;;;;;;-1.66;100;94001.76;;;;
2019/11/14 03:10:18;;;;;;;6.200001;4.799999;;;;;;;-1.66;100;94001.76;;;;
2019/11/14 03:11:20;;;;;;;6.200001;4.799999;;;;;;;-1.66;100;94001.76;;;;
2019/11/14 03:12:21;;;;;;;6.200001;4.799999;;;;;;;-1.66;100;94001.76;;;;
2019/11/14 03:13:24;;;;;;;7.2;5;;;;;;;-1.58;100;93994.98;;;;
2019/11/14 03:14:25;;;;;;;7.2;5;;;;;;;-1.58;100;93994.98;;;;
2019/11/14 03:15:27;;;;;;;7.2;5;;;;;;;-1.58;100;93994.98;;;;
2019/11/14 03:16:48;;;;;;;7.2;5;;;;;;;-1.58;100;93994.98;;;;
2019/11/14 03:17:49;;;;;;;7.2;5;;;;;;;-1.58;100;93994.98;;;;
2019/11/14 03:18:50;;;;;;;7.2;5;;;;;;;-1.58;100;93994.98;;;;
2019/11/14 03:19:51;;;;;;;7.2;5;;;;;;;-1.58;100;93994.98;;;;
2019/11/14 03:20:53;;;;;;;7.2;5;;;;;;;-1.58;100;93994.98;;;;
2019/11/14 03:21:55;;;;;;;7.2;5;;;;;;;-1.58;100;93994.98;;;;
2019/11/14 03:22:56;;;;;;;7.2;5;;;;;;;-1.58;100;93994.98;;;;
2019/11/14 03:23:57;;;;;;;4.849999;3.7;;;;;;;-1.65;100;93997.68;;;;
2019/11/14 03:24:58;;;;;;;4.849999;3.7;;;;;;;-1.65;100;93997.68;;;;
2019/11/14 03:25:59;;;;;;;4.849999;3.7;;;;;;;-1.65;100;93997.68;;;;
2019/11/14 03:27:04;;;;;;;4.849999;3.7;;;;;;;-1.65;100;93997.68;;;;
2019/11/14 03:28:10;;;;;;;4.849999;3.7;;;;;;;-1.65;100;93997.68;;;;
2019/11/14 03:29:14;;;;;;;4.849999;3.7;;;;;;;-1.65;100;93997.68;;;;
2019/11/14 03:30:27;;;;;;;4.849999;3.7;;;;;;;-1.65;100;93997.68;;;;
2019/11/14 03:32:07;;;;;;;4.849999;3.7;;;;;;;-1.65;100;93997.68;;;;
2019/11/14 03:33:18;;;;;;;4.849999;3.7;;;;;;;-1.65;100;93997.68;;;;
2019/11/14 03:34:19;;;;;;;4.65;3.800001;;;;;;;-1.79;100;93985.3;;;;
2019/11/14 03:35:20;;;;;;;4.65;3.800001;;;;;;;-1.79;100;93985.3;;;;
2019/11/14 03:36:21;;;;;;;4.65;3.800001;;;;;;;-1.79;100;93985.3;;;;
2019/11/14 03:37:23;;;;;;;4.65;3.800001;;;;;;;-1.79;100;93985.3;;;;
2019/11/14 03:38:24;;;;;;;4.65;3.800001;;;;;;;-1.79;100;93985.3;;;;
2019/11/14 03:39:25;;;;;;;4.65;3.800001;;;;;;;-1.79;100;93985.3;;;;
2019/11/14 03:40:26;;;;;;;4.65;3.800001;;;;;;;-1.79;100;93985.3;;;;
2019/11/14 03:41:27;;;;;;;4.65;3.800001;;;;;;;-1.79;100;93985.3;;;;
2019/11/14 03:42:33;;;;;;;4.65;3.800001;;;;;;;-1.79;100;93985.3;;;;
2019/11/14 03:43:34;;;;;;;4.65;3.800001;;;;;;;-1.79;100;93985.3;;;;
2019/11/14 03:44:37;;;;;;;6.05;4.05;;;;;;;-1.82;100;93976.93;;;;
2019/11/14 03:45:41;;;;;;;6.05;4.05;;;;;;;-1.82;100;93976.93;;;;
2019/11/14 03:46:51;;;;;;;6.05;4.05;;;;;;;-1.82;100;93976.93;;;;
2019/11/14 03:47:52;;;;;;;6.05;4.05;;;;;;;-1.82;100;93976.93;;;;
2019/11/14 03:48:55;;;;;;;6.05;4.05;;;;;;;-1.82;100;93976.93;;;;
2019/11/14 03:49:57;;;;;;;6.05;4.05;;;;;;;-1.82;100;93976.93;;;;
2019/11/14 03:50:59;;;;;;;6.05;4.05;;;;;;;-1.82;100;93976.93;;;;
2019/11/14 03:52:07;;;;;;;6.05;4.05;;;;;;;-1.82;100;93976.93;;;;
2019/11/14 03:53:09;;;;;;;6.05;4.05;;;;;;;-1.82;100;93976.93;;;;
2019/11/14 03:54:14;;;;;;;6.05;4.05;;;;;;;-1.82;100;93976.93;;;;
2019/11/14 03:55:16;;;;;;;5.349999;4.05;;;;;;;-1.82;100;93969.41;;;;
2019/11/14 03:56:17;;;;;;;5.349999;4.05;;;;;;;-1.82;100;93969.41;;;;
2019/11/14 03:57:19;;;;;;;5.349999;4.05;;;;;;;-1.82;100;93969.41;;;;
2019/11/14 03:58:21;;;;;;;5.349999;4.05;;;;;;;-1.82;100;93969.41;;;;
2019/11/14 03:59:26;;;;;;;5.349999;4.05;;;;;;;-1.82;100;93969.41;;;;
2019/11/14 04:00:30;;;;;;;5.349999;4.05;;;;;;;-1.82;100;93969.41;;;;
2019/11/14 04:01:32;;;;;;;5.349999;4.05;;;;;;;-1.82;100;93969.41;;;;
2019/11/14 04:02:36;;;;;;;5.349999;4.05;;;;;;;-1.82;100;93969.41;;;;
2019/11/14 04:03:39;;;;;;;5.349999;4.05;;;;;;;-1.82;100;93969.41;;;;
2019/11/14 04:04:41;;;;;;;5.349999;4.05;;;;;;;-1.82;100;93969.41;;;;
2019/11/14 04:05:53;;;;;;;5.4;4.299999;;;;;;;-1.88;100;93974.55;;;;
2019/11/14 04:07:01;;;;;;;5.4;4.299999;;;;;;;-1.88;100;93974.55;;;;
2019/11/14 04:08:11;;;;;;;5.4;4.299999;;;;;;;-1.88;100;93974.55;;;;
2019/11/14 04:09:13;;;;;;;5.4;4.299999;;;;;;;-1.88;100;93974.55;;;;
2019/11/14 04:10:14;;;;;;;5.4;4.299999;;;;;;;-1.88;100;93974.55;;;;
2019/11/14 04:11:18;;;;;;;5.4;4.299999;;;;;;;-1.88;100;93974.55;;;;
2019/11/14 04:12:19;;;;;;;5.4;4.299999;;;;;;;-1.88;100;93974.55;;;;
2019/11/14 04:13:20;;;;;;;5.4;4.299999;;;;;;;-1.88;100;93974.55;;;;
2019/11/14 04:14:21;;;;;;;5.4;4.299999;;;;;;;-1.88;100;93974.55;;;;
2019/11/14 04:15:23;;;;;;;5.4;4.299999;;;;;;;-1.88;100;93974.55;;;;
2019/11/14 04:16:24;;;;;;;5.4;4.299999;;;;;;;-1.88;100;93974.55;;;;
2019/11/14 04:17:25;;;;;;;5.4;4.299999;;;;;;;-1.88;100;93974.55;;;;
2019/11/14 04:18:26;;;;;;;5.4;4.299999;;;;;;;-1.88;100;93974.55;;;;
2019/11/14 04:19:27;;;;;;;5.4;4.299999;;;;;;;-1.88;100;93974.55;;;;
2019/11/14 04:20:29;;;;;;;5.4;4.299999;;;;;;;-1.88;100;93974.55;;;;
2019/11/14 04:21:30;;;;;;;5.4;4.299999;;;;;;;-1.88;100;93974.55;;;;
2019/11/14 04:22:31;;;;;;;5.4;4.299999;;;;;;;-1.88;100;93974.55;;;;
2019/11/14 04:23:32;;;;;;;5.4;4.299999;;;;;;;-1.88;100;93974.55;;;;
2019/11/14 04:24:33;;;;;;;5.4;4.299999;;;;;;;-1.88;100;93974.55;;;;
2019/11/14 04:25:35;;;;;;;5.4;4.299999;;;;;;;-1.88;100;93974.55;;;;
2019/11/14 04:26:36;;;;;;;5.4;4.299999;;;;;;;-1.88;100;93974.55;;;;
2019/11/14 04:27:37;;;;;;;6.4;4.450001;;;;;;;-1.93;100;93959.86;;;;
2019/11/14 04:28:38;;;;;;;6.4;4.450001;;;;;;;-1.93;100;93959.86;;;;
2019/11/14 04:29:39;;;;;;;6.4;4.450001;;;;;;;-1.93;100;93959.86;;;;
2019/11/14 04:30:48;;;;;;;6.4;4.450001;;;;;;;-1.93;100;93959.86;;;;
2019/11/14 04:32:02;;;;;;;6.4;4.450001;;;;;;;-1.93;100;93959.86;;;;
2019/11/14 04:33:12;;;;;;;6.4;4.450001;;;;;;;-1.93;100;93959.86;;;;
2019/11/14 04:34:15;;;;;;;6.4;4.450001;;;;;;;-1.93;100;93959.86;;;;
2019/11/14 04:35:16;;;;;;;6.4;4.450001;;;;;;;-1.93;100;93959.86;;;;
2019/11/14 04:36:18;;;;;;;6.4;4.450001;;;;;;;-1.93;100;93959.86;;;;
2019/11/14 04:37:20;;;;;;;6.4;4.450001;;;;;;;-1.93;100;93959.86;;;;
2019/11/14 04:38:21;;;;;;;5.900001;4.450001;;;;;;;-2.02;100;93962.33;;;;
2019/11/14 04:39:25;;;;;;;5.900001;4.450001;;;;;;;-2.02;100;93962.33;;;;
2019/11/14 04:40:28;;;;;;;5.900001;4.450001;;;;;;;-2.02;100;93962.33;;;;
2019/11/14 04:41:29;;;;;;;5.900001;4.450001;;;;;;;-2.02;100;93962.33;;;;
2019/11/14 04:42:30;;;;;;;5.900001;4.450001;;;;;;;-2.02;100;93962.33;;;;
2019/11/14 04:43:34;;;;;;;5.900001;4.450001;;;;;;;-2.02;100;93962.33;;;;
2019/11/14 04:44:36;;;;;;;5.900001;4.450001;;;;;;;-2.02;100;93962.33;;;;
2019/11/14 04:45:37;;;;;;;5.900001;4.450001;;;;;;;-2.02;100;93962.33;;;;
2019/11/14 04:46:38;;;;;;;5.900001;4.450001;;;;;;;-2.02;100;93962.33;;;;
2019/11/14 04:47:40;;;;;;;5.900001;4.450001;;;;;;;-2.02;100;93962.33;;;;
2019/11/14 04:48:41;;;;;;;6.45;4.65;;;;;;;-2.12;100;93956.58;;;;
2019/11/14 04:49:42;;;;;;;6.45;4.65;;;;;;;-2.12;100;93956.58;;;;
2019/11/14 04:50:43;;;;;;;6.45;4.65;;;;;;;-2.12;100;93956.58;;;;
2019/11/14 04:51:44;;;;;;;6.45;4.65;;;;;;;-2.12;100;93956.58;;;;
2019/11/14 04:52:45;;;;;;;6.45;4.65;;;;;;;-2.12;100;93956.58;;;;
2019/11/14 04:53:47;;;;;;;6.45;4.65;;;;;;;-2.12;100;93956.58;;;;
2019/11/14 04:54:48;;;;;;;6.45;4.65;;;;;;;-2.12;100;93956.58;;;;
2019/11/14 04:55:49;;;;;;;6.45;4.65;;;;;;;-2.12;100;93956.58;;;;
2019/11/14 04:56:51;;;;;;;6.45;4.65;;;;;;;-2.12;100;93956.58;;;;
2019/11/14 04:57:52;;;;;;;6.45;4.65;;;;;;;-2.12;100;93956.58;;;;
2019/11/14 04:58:53;;;;;;;6.45;4.65;;;;;;;-2.12;100;93956.58;;;;
2019/11/14 04:59:54;;;;;;;7.500001;5.700001;;;;;;;-2.21;100;93944.92;;;;
2019/11/14 05:00:56;;;;;;;7.500001;5.700001;;;;;;;-2.21;100;93944.92;;;;
2019/11/14 05:01:57;;;;;;;7.500001;5.700001;;;;;;;-2.21;100;93944.92;;;;
2019/11/14 05:02:58;;;;;;;7.500001;5.700001;;;;;;;-2.21;100;93944.92;;;;
2019/11/14 05:04:00;;;;;;;7.500001;5.700001;;;;;;;-2.21;100;93944.92;;;;
2019/11/14 05:05:01;;;;;;;7.500001;5.700001;;;;;;;-2.21;100;93944.92;;;;
2019/11/14 05:06:02;;;;;;;7.500001;5.700001;;;;;;;-2.21;100;93944.92;;;;
2019/11/14 05:07:03;;;;;;;7.500001;5.700001;;;;;;;-2.21;100;93944.92;;;;
2019/11/14 05:08:05;;;;;;;7.500001;5.700001;;;;;;;-2.21;100;93944.92;;;;
2019/11/14 05:09:06;;;;;;;7.500001;5.700001;;;;;;;-2.21;100;93944.92;;;;
2019/11/14 05:10:08;;;;;;;10.3;6.849999;;;;;;;-2.25;100;93942.22;;;;
2019/11/14 05:11:09;;;;;;;10.3;6.849999;;;;;;;-2.25;100;93942.22;;;;
2019/11/14 05:12:10;;;;;;;10.3;6.849999;;;;;;;-2.25;100;93942.22;;;;
2019/11/14 05:13:11;;;;;;;10.3;6.849999;;;;;;;-2.25;100;93942.22;;;;
2019/11/14 05:14:12;;;;;;;10.3;6.849999;;;;;;;-2.25;100;93942.22;;;;
2019/11/14 05:15:13;;;;;;;10.3;6.849999;;;;;;;-2.25;100;93942.22;;;;
2019/11/14 05:16:14;;;;;;;10.3;6.849999;;;;;;;-2.25;100;93942.22;;;;
2019/11/14 05:17:16;;;;;;;10.3;6.849999;;;;;;;-2.25;100;93942.22;;;;
2019/11/14 05:18:17;;;;;;;10.3;6.849999;;;;;;;-2.25;100;93942.22;;;;
2019/11/14 05:19:18;;;;;;;10.3;6.849999;;;;;;;-2.25;100;93942.22;;;;
2019/11/14 05:20:19;;;;;;;12.8;8.500002;;;;;;;-2.24;100;93936.44;;;;
2019/11/14 05:21:20;;;;;;;12.8;8.500002;;;;;;;-2.24;100;93936.44;;;;
2019/11/14 05:22:21;;;;;;;12.8;8.500002;;;;;;;-2.24;100;93936.44;;;;
2019/11/14 05:23:22;;;;;;;12.8;8.500002;;;;;;;-2.24;100;93936.44;;;;
2019/11/14 05:24:24;;;;;;;12.8;8.500002;;;;;;;-2.24;100;93936.44;;;;
2019/11/14 05:25:25;;;;;;;12.8;8.500002;;;;;;;-2.24;100;93936.44;;;;
2019/11/14 05:26:26;;;;;;;12.8;8.500002;;;;;;;-2.24;100;93936.44;;;;
2019/11/14 05:27:27;;;;;;;12.8;8.500002;;;;;;;-2.24;100;93936.44;;;;
2019/11/14 05:28:28;;;;;;;12.8;8.500002;;;;;;;-2.24;100;93936.44;;;;
2019/11/14 05:29:29;;;;;;;12.8;8.500002;;;;;;;-2.24;100;93936.44;;;;
2019/11/14 05:30:43;;;;;;;12.8;8.500002;;;;;;;-2.24;100;93936.44;;;;
2019/11/14 05:31:51;;;;;;;15.7;10.5;;;;;;;-2.19;100;93934.94;;;;
2019/11/14 05:32:55;;;;;;;15.7;10.5;;;;;;;-2.19;100;93934.94;;;;
2019/11/14 05:34:03;;;;;;;15.7;10.5;;;;;;;-2.19;100;93934.94;;;;
2019/11/14 05:35:06;;;;;;;15.7;10.5;;;;;;;-2.19;100;93934.94;;;;
2019/11/14 05:36:09;;;;;;;15.7;10.5;;;;;;;-2.19;100;93934.94;;;;
2019/11/14 05:37:14;;;;;;;15.7;10.5;;;;;;;-2.19;100;93934.94;;;;
2019/11/14 05:38:17;;;;;;;15.7;10.5;;;;;;;-2.19;100;93934.94;;;;
2019/11/14 05:39:18;;;;;;;15.7;10.5;;;;;;;-2.19;100;93934.94;;;;
2019/11/14 05:40:20;;;;;;;15.7;10.5;;;;;;;-2.19;100;93934.94;;;;
2019/11/14 05:41:21;;;;;;;15.7;10.5;;;;;;;-2.19;100;93934.94;;;;
2019/11/14 05:42:22;;;;;;;18.2;10.9;;;;;;;-2.14;100;93935.21;;;;
2019/11/14 05:43:23;;;;;;;18.2;10.9;;;;;;;-2.14;100;93935.21;;;;
2019/11/14 05:44:24;;;;;;;18.2;10.9;;;;;;;-2.14;100;93935.21;;;;
2019/11/14 05:45:25;;;;;;;18.2;10.9;;;;;;;-2.14;100;93935.21;;;;
2019/11/14 05:46:26;;;;;;;18.2;10.9;;;;;;;-2.14;100;93935.21;;;;
2019/11/14 05:47:27;;;;;;;18.2;10.9;;;;;;;-2.14;100;93935.21;;;;
2019/11/14 05:48:28;;;;;;;18.2;10.9;;;;;;;-2.14;100;93935.21;;;;
2019/11/14 05:49:30;;;;;;;18.2;10.9;;;;;;;-2.14;100;93935.21;;;;
2019/11/14 05:50:31;;;;;;;18.2;10.9;;;;;;;-2.14;100;93935.21;;;;
2019/11/14 05:51:32;;;;;;;18.2;10.9;;;;;;;-2.14;100;93935.21;;;;
2019/11/14 05:52:33;;;;;;;21.3;12.05;;;;;;;-2.12;100;93938.48;;;;
2019/11/14 05:53:34;;;;;;;21.3;12.05;;;;;;;-2.12;100;93938.48;;;;
2019/11/14 05:54:35;;;;;;;21.3;12.05;;;;;;;-2.12;100;93938.48;;;;
2019/11/14 05:55:36;;;;;;;21.3;12.05;;;;;;;-2.12;100;93938.48;;;;
2019/11/14 05:56:37;;;;;;;21.3;12.05;;;;;;;-2.12;100;93938.48;;;;
2019/11/14 05:57:38;;;;;;;21.3;12.05;;;;;;;-2.12;100;93938.48;;;;
2019/11/14 05:58:39;;;;;;;21.3;12.05;;;;;;;-2.12;100;93938.48;;;;
2019/11/14 05:59:41;;;;;;;21.3;12.05;;;;;;;-2.12;100;93938.48;;;;
2019/11/14 06:00:42;;;;;;;21.3;12.05;;;;;;;-2.12;100;93938.48;;;;
2019/11/14 06:01:43;;;;;;;21.3;12.05;;;;;;;-2.12;100;93938.48;;;;
2019/11/14 06:02:44;;;;;;;18.05;11.1;;;;;;;-2.15;100;93941.49;;;;
2019/11/14 06:03:45;;;;;;;18.05;11.1;;;;;;;-2.15;100;93941.49;;;;
2019/11/14 06:04:46;;;;;;;18.05;11.1;;;;;;;-2.15;100;93941.49;;;;
2019/11/14 06:05:47;;;;;;;18.05;11.1;;;;;;;-2.15;100;93941.49;;;;
2019/11/14 06:06:48;;;;;;;18.05;11.1;;;;;;;-2.15;100;93941.49;;;;
2019/11/14 06:07:49;;;;;;;18.05;11.1;;;;;;;-2.15;100;93941.49;;;;
2019/11/14 06:08:51;;;;;;;18.05;11.1;;;;;;;-2.15;100;93941.49;;;;
2019/11/14 06:09:52;;;;;;;18.05;11.1;;;;;;;-2.15;100;93941.49;;;;
2019/11/14 06:10:53;;;;;;;18.05;11.1;;;;;;;-2.15;100;93941.49;;;;
2019/11/14 06:11:54;;;;;;;18.05;11.1;;;;;;;-2.15;100;93941.49;;;;
2019/11/14 06:12:55;;;;;;;18.05;11.1;;;;;;;-2.15;100;93941.49;;;;